Time;durP1;ratioP1;P1;durP2;ratioP2;P2;SDS_P1;SDS_P2;PMS_P1;PMS_P2;Temp;Humidity;BMP_temperature;BMP_pressure;BME280_temperature;BME280_humidity;BME280_pressure;Samples;Min_cycle;Max_cycle;Signal;HPM_P1;HPM_P2
2023/10/02 00:00:41;;;;;;;15.50;7.87;;;25.00;59.10;;;;;;5038351;28;20455;-80
2023/10/02 00:03:11;;;;;;;11.47;7.60;;;25.00;59.10;;;;;;5042602;28;20456;-80
2023/10/02 00:05:40;;;;;;;15.10;6.77;;;25.00;59.00;;;;;;5039846;28;20473;-81
2023/10/02 00:08:25;;;;;;;10.60;7.40;;;25.00;59.00;;;;;;5037945;28;20434;-80
2023/10/02 00:10:53;;;;;;;10.37;7.00;;;25.00;59.00;;;;;;5029168;28;20463;-81
2023/10/02 00:13:21;;;;;;;12.00;6.57;;;25.00;59.00;;;;;;5038045;28;20447;-81
2023/10/02 00:15:53;;;;;;;11.90;7.20;;;25.00;58.80;;;;;;5045957;28;20472;-80
2023/10/02 00:18:23;;;;;;;9.63;6.70;;;25.00;58.90;;;;;;5039895;28;20440;-80
2023/10/02 00:21:17;;;;;;;10.53;7.00;;;25.00;58.80;;;;;;5040291;28;20490;-82
2023/10/02 00:23:59;;;;;;;8.13;6.50;;;24.90;58.70;;;;;;5038009;28;20538;-81
2023/10/02 00:26:27;;;;;;;10.67;7.40;;;25.00;58.90;;;;;;5037834;28;20435;-79
2023/10/02 00:28:59;;;;;;;10.50;7.03;;;24.90;58.80;;;;;;5029546;28;20512;-79
2023/10/02 00:31:36;;;;;;;9.60;6.80;;;24.90;58.80;;;;;;5037222;28;20464;-80
2023/10/02 00:34:06;;;;;;;8.30;6.40;;;24.90;58.70;;;;;;5029892;28;20471;-81
2023/10/02 00:36:36;;;;;;;11.13;7.30;;;24.90;59.50;;;;;;5039778;28;20424;-81
2023/10/02 00:42:10;;;;;;;9.70;6.60;;;24.90;59.00;;;;;;5035948;28;20533;-82
2023/10/02 00:47:35;;;;;;;11.17;7.67;;;24.90;58.90;;;;;;5036938;28;20443;-83
2023/10/02 00:50:10;;;;;;;8.90;6.40;;;24.90;58.90;;;;;;5038152;28;20451;-82
2023/10/02 00:52:41;;;;;;;8.73;6.33;;;24.90;58.90;;;;;;5037603;28;20414;-81
2023/10/02 00:55:11;;;;;;;9.37;7.10;;;24.90;58.90;;;;;;5027071;28;20468;-80
2023/10/02 00:57:39;;;;;;;8.23;6.50;;;24.90;59.00;;;;;;5037459;28;20474;-81
2023/10/02 01:00:17;;;;;;;9.53;6.70;;;24.90;58.90;;;;;;5037716;28;20491;-82
2023/10/02 01:02:46;;;;;;;7.83;5.93;;;24.90;59.00;;;;;;5037665;28;20447;-82
2023/10/02 01:05:17;;;;;;;10.07;6.50;;;24.90;59.00;;;;;;5038216;28;20478;-82
2023/10/02 01:07:46;;;;;;;11.40;8.07;;;24.90;58.90;;;;;;5037633;28;20418;-81
2023/10/02 01:10:20;;;;;;;9.20;6.73;;;24.90;59.60;;;;;;5037809;28;20463;-81
2023/10/02 01:12:49;;;;;;;9.67;6.63;;;24.90;59.00;;;;;;5026421;28;20506;-82
2023/10/02 01:15:20;;;;;;;10.77;6.73;;;24.80;59.00;;;;;;5036688;28;20525;-81
2023/10/02 01:18:18;;;;;;;10.57;7.23;;;24.80;59.00;;;;;;5037295;28;20475;-81
2023/10/02 01:20:48;;;;;;;9.47;6.67;;;24.80;59.10;;;;;;5037079;28;20466;-81
2023/10/02 01:23:17;;;;;;;8.87;6.30;;;24.80;59.10;;;;;;5037704;28;20447;-82
2023/10/02 01:25:49;;;;;;;13.03;7.80;;;24.80;59.00;;;;;;5037595;28;20428;-82
2023/10/02 01:28:20;;;;;;;10.23;6.63;;;24.80;59.00;;;;;;5037781;28;20447;-81
2023/10/02 01:30:50;;;;;;;11.53;6.77;;;24.80;59.10;;;;;;5041671;28;20471;-81
2023/10/02 01:33:22;;;;;;;11.70;6.70;;;24.80;59.10;;;;;;5048729;28;20439;-80
2023/10/02 01:35:51;;;;;;;11.87;6.70;;;24.80;58.90;;;;;;5041642;28;20471;-80
2023/10/02 01:38:27;;;;;;;10.67;6.90;;;24.80;59.10;;;;;;5036363;28;20489;-80
2023/10/02 01:41:03;;;;;;;9.40;6.37;;;24.80;59.00;;;;;;5034376;28;20510;-81
2023/10/02 01:43:35;;;;;;;12.73;7.50;;;24.80;59.10;;;;;;5033456;28;20443;-80
2023/10/02 01:46:05;;;;;;;10.90;6.43;;;24.80;59.20;;;;;;5027402;28;20459;-80
2023/10/02 01:48:41;;;;;;;8.57;6.20;;;24.80;59.20;;;;;;5033045;28;20452;-81
2023/10/02 01:51:25;;;;;;;9.33;5.90;;;24.80;59.10;;;;;;5041499;28;20473;-80
2023/10/02 01:53:56;;;;;;;9.53;6.17;;;24.80;59.10;;;;;;5036687;28;20444;-82
2023/10/02 01:56:27;;;;;;;10.97;6.30;;;24.80;59.10;;;;;;5027875;28;20471;-82
2023/10/02 01:59:08;;;;;;;9.90;7.00;;;24.80;59.30;;;;;;5027671;28;20467;-81
2023/10/02 02:01:46;;;;;;;9.60;6.60;;;24.80;59.20;;;;;;5036770;28;20417;-82
2023/10/02 02:04:15;;;;;;;8.47;6.40;;;24.80;59.20;;;;;;5034701;28;20418;-82
2023/10/02 02:06:52;;;;;;;10.63;7.00;;;24.80;59.20;;;;;;5034663;28;20517;-82
2023/10/02 02:09:23;;;;;;;9.00;6.77;;;24.80;59.20;;;;;;5036583;28;20955;-82
2023/10/02 02:12:06;;;;;;;9.90;6.57;;;24.80;59.20;;;;;;5037544;28;20429;-82
2023/10/02 02:14:41;;;;;;;10.00;6.40;;;24.80;59.20;;;;;;5039446;28;20441;-81
2023/10/02 02:17:11;;;;;;;9.67;6.43;;;24.80;59.20;;;;;;5039835;28;20454;-82
2023/10/02 02:19:48;;;;;;;8.37;6.30;;;24.80;59.20;;;;;;5038879;28;20522;-82
2023/10/02 02:22:17;;;;;;;9.80;6.90;;;24.80;59.20;;;;;;5035948;28;20486;-81
2023/10/02 02:24:46;;;;;;;9.87;6.23;;;24.80;59.20;;;;;;5038582;28;20421;-81
2023/10/02 02:27:17;;;;;;;11.07;6.43;;;24.80;59.20;;;;;;5039449;28;20534;-82
2023/10/02 02:29:46;;;;;;;11.53;7.13;;;24.80;59.20;;;;;;5031954;28;20467;-82
2023/10/02 02:32:19;;;;;;;9.17;6.33;;;24.80;59.30;;;;;;5040199;28;20458;-81
2023/10/02 02:34:48;;;;;;;8.37;6.10;;;24.80;59.30;;;;;;5039880;28;20533;-81
2023/10/02 02:37:28;;;;;;;11.97;6.60;;;24.80;59.20;;;;;;5039614;28;20965;-82
2023/10/02 02:40:21;;;;;;;10.77;7.13;;;24.80;59.20;;;;;;5035934;28;20476;-83
2023/10/02 02:42:50;;;;;;;12.67;8.10;;;24.80;59.20;;;;;;5039188;28;20418;-82
2023/10/02 02:45:28;;;;;;;12.90;8.60;;;24.80;59.30;;;;;;5040606;28;20844;-79
2023/10/02 02:47:57;;;;;;;14.40;10.20;;;24.80;59.20;;;;;;5039117;28;20435;-82
2023/10/02 02:50:28;;;;;;;16.33;11.40;;;24.80;59.30;;;;;;5039406;28;20462;-81
2023/10/02 02:55:37;;;;;;;20.57;12.97;;;24.80;59.30;;;;;;5036213;28;20442;-83
2023/10/02 02:58:07;;;;;;;17.87;12.57;;;24.80;59.30;;;;;;5039243;28;20443;-81
2023/10/02 03:00:36;;;;;;;21.17;13.30;;;24.80;59.30;;;;;;5039045;28;20462;-83
2023/10/02 03:03:29;;;;;;;21.47;14.67;;;24.70;59.20;;;;;;5039237;28;20511;-81
2023/10/02 03:05:58;;;;;;;20.37;14.47;;;24.80;59.40;;;;;;5032964;28;20455;-81
2023/10/02 03:08:37;;;;;;;23.37;15.00;;;24.80;60.10;;;;;;5032084;28;20577;-80
2023/10/02 03:11:07;;;;;;;22.40;15.07;;;24.80;59.40;;;;;;5025914;28;20453;-80
2023/10/02 03:13:36;;;;;;;27.17;16.50;;;24.70;59.20;;;;;;5035594;28;20436;-80
2023/10/02 03:16:12;;;;;;;22.93;15.33;;;24.80;59.30;;;;;;5037964;28;20463;-82
2023/10/02 03:18:43;;;;;;;23.73;15.23;;;24.80;59.30;;;;;;5038156;28;20443;-82
2023/10/02 03:21:21;;;;;;;21.00;14.30;;;24.80;59.30;;;;;;5038634;28;20463;-80
2023/10/02 03:23:50;;;;;;;24.53;15.97;;;24.80;59.40;;;;;;5040170;28;20454;-79
2023/10/02 03:26:26;;;;;;;21.90;15.10;;;24.80;59.40;;;;;;5037118;28;20515;-81
2023/10/02 03:29:02;;;;;;;21.03;14.40;;;24.80;59.30;;;;;;5037382;28;20488;-81
2023/10/02 03:31:36;;;;;;;25.10;15.33;;;24.80;59.40;;;;;;5037219;28;20501;-81
2023/10/02 03:36:50;;;;;;;25.53;15.43;;;24.80;59.40;;;;;;5036545;28;20484;-81
2023/10/02 03:42:12;;;;;;;23.83;15.77;;;24.80;59.50;;;;;;5028565;28;20450;-80
2023/10/02 03:44:42;;;;;;;20.67;14.13;;;24.70;59.40;;;;;;5036818;28;20476;-81
2023/10/02 03:47:12;;;;;;;25.17;15.20;;;24.70;59.40;;;;;;5036596;28;20484;-81
2023/10/02 03:49:42;;;;;;;23.90;15.07;;;24.70;59.30;;;;;;5036823;28;20555;-81
2023/10/02 03:52:13;;;;;;;20.93;14.33;;;24.70;59.50;;;;;;5038936;28;20444;-81
2023/10/02 03:54:43;;;;;;;23.77;14.73;;;24.70;59.40;;;;;;5038633;28;20421;-80
2023/10/02 03:57:37;;;;;;;21.83;13.83;;;24.80;59.50;;;;;;5041201;28;20521;-81
2023/10/02 04:00:18;;;;;;;22.80;13.23;;;24.80;59.50;;;;;;5038275;28;20454;-81
2023/10/02 04:02:47;;;;;;;20.60;13.60;;;24.80;59.40;;;;;;5036038;28;20431;-80
2023/10/02 04:05:30;;;;;;;22.37;14.40;;;24.80;59.50;;;;;;5027593;28;20443;-80
2023/10/02 04:08:12;;;;;;;23.13;14.93;;;24.70;60.00;;;;;;5038491;28;20435;-81
2023/10/02 04:10:55;;;;;;;20.57;13.90;;;24.70;59.40;;;;;;5035176;28;20430;-82
2023/10/02 04:13:25;;;;;;;21.60;14.47;;;24.70;59.40;;;;;;5031424;28;20448;-83
2023/10/02 04:16:28;;;;;;;23.43;14.50;;;24.80;59.60;;;;;;5040669;28;20471;-81
2023/10/02 04:18:49;;;;;;;23.83;14.20;;;24.80;59.40;;;;;;5027740;28;20827;-81
2023/10/02 04:21:22;;;;;;;20.17;13.67;;;24.80;59.50;;;;;;5038267;28;20459;-82
2023/10/02 04:23:53;;;;;;;20.80;13.77;;;24.80;59.50;;;;;;5038623;28;20418;-82
2023/10/02 04:26:21;;;;;;;19.30;12.63;;;24.70;59.40;;;;;;5037919;28;20474;-82
2023/10/02 04:28:55;;;;;;;23.77;13.77;;;24.70;59.50;;;;;;5036821;28;20444;-82
2023/10/02 04:31:28;;;;;;;24.10;14.50;;;24.80;59.50;;;;;;5037088;28;20477;-83
2023/10/02 04:36:42;;;;;;;17.97;12.60;;;24.70;59.50;;;;;;5037802;28;20453;-83
2023/10/02 04:39:51;;;;;;;20.40;13.50;;;24.70;60.10;;;;;;5038118;28;20506;-82
2023/10/02 04:42:15;;;;;;;23.00;14.40;;;24.70;59.50;;;;;;5029582;28;20430;-83
2023/10/02 04:44:46;;;;;;;20.93;12.70;;;24.70;59.50;;;;;;5045094;28;20893;-81
2023/10/02 04:47:20;;;;;;;18.70;13.00;;;24.70;59.50;;;;;;5047548;28;20437;-81
2023/10/02 04:55:23;;;;;;;23.13;14.10;;;24.70;59.60;;;;;;5030651;28;20442;-81
2023/10/02 04:57:54;;;;;;;22.73;13.37;;;24.60;59.60;;;;;;5037980;28;20471;-81
2023/10/02 05:00:32;;;;;;;20.20;12.80;;;24.70;59.60;;;;;;5037192;28;20468;-81
2023/10/02 05:03:17;;;;;;;22.23;13.50;;;24.60;59.60;;;;;;5036615;28;20410;-81
2023/10/02 05:05:49;;;;;;;19.30;12.37;;;24.60;59.40;;;;;;5032204;28;20440;-79
2023/10/02 05:08:21;;;;;;;19.47;12.30;;;24.60;59.60;;;;;;5036980;28;20410;-80
2023/10/02 05:10:50;;;;;;;22.70;13.33;;;24.60;59.50;;;;;;5035823;28;20450;-81
2023/10/02 05:16:11;;;;;;;20.03;13.10;;;24.60;59.60;;;;;;5036419;28;21209;-81
2023/10/02 05:18:44;;;;;;;18.93;12.43;;;24.60;59.70;;;;;;5035727;28;20414;-78
2023/10/02 05:21:16;;;;;;;24.17;13.93;;;24.60;59.70;;;;;;5033445;28;20463;-80
2023/10/02 05:23:56;;;;;;;19.10;12.60;;;24.60;59.70;;;;;;5037377;28;20456;-80
2023/10/02 05:26:34;;;;;;;23.63;12.03;;;24.60;59.80;;;;;;5031779;28;20414;-79
2023/10/02 05:29:03;;;;;;;21.77;12.30;;;24.60;59.70;;;;;;5033976;28;20429;-80
2023/10/02 05:31:36;;;;;;;22.20;12.87;;;24.60;59.80;;;;;;5035078;28;20523;-80
2023/10/02 05:34:09;;;;;;;21.60;12.57;;;24.60;59.80;;;;;;5031999;28;20409;-80
2023/10/02 05:36:54;;;;;;;18.30;12.10;;;24.50;59.70;;;;;;5036506;28;20828;-82
2023/10/02 05:42:13;;;;;;;17.97;11.63;;;24.60;60.50;;;;;;5038012;28;20870;-81
2023/10/02 05:44:42;;;;;;;19.40;12.37;;;24.60;59.90;;;;;;5038187;28;20474;-79
2023/10/02 05:47:11;;;;;;;24.10;12.40;;;24.60;59.90;;;;;;5037260;28;20452;-82
2023/10/02 05:49:47;;;;;;;17.70;11.70;;;24.60;59.90;;;;;;5037241;28;20514;-81
2023/10/02 05:52:18;;;;;;;18.30;12.07;;;24.50;59.70;;;;;;5036593;28;20447;-80
2023/10/02 05:54:53;;;;;;;21.60;11.63;;;24.50;59.90;;;;;;5033969;28;20418;-81
2023/10/02 05:57:22;;;;;;;19.30;10.63;;;24.50;59.90;;;;;;5034271;28;20465;-82
2023/10/02 05:59:54;;;;;;;17.53;11.70;;;24.50;59.90;;;;;;5034901;28;20493;-80
2023/10/02 06:02:23;;;;;;;21.40;12.17;;;24.50;59.80;;;;;;5033346;28;20443;-80
2023/10/02 06:04:53;;;;;;;16.07;10.70;;;24.50;59.80;;;;;;5035365;28;20497;-81
2023/10/02 06:10:07;;;;;;;16.50;11.03;;;24.60;59.90;;;;;;5034723;28;20455;-80
2023/10/02 06:12:35;;;;;;;18.50;11.00;;;24.60;59.80;;;;;;5033574;28;20485;-81
2023/10/02 06:15:09;;;;;;;17.83;11.40;;;24.60;59.80;;;;;;5043282;28;20483;-79
2023/10/02 06:17:37;;;;;;;19.37;11.60;;;24.60;59.80;;;;;;5036989;28;20474;-80
2023/10/02 06:20:17;;;;;;;18.33;10.97;;;24.60;59.80;;;;;;5035559;28;20455;-81
2023/10/02 06:22:47;;;;;;;17.30;10.90;;;24.60;59.90;;;;;;5038186;28;20526;-80
2023/10/02 06:25:18;;;;;;;16.93;11.50;;;24.60;59.80;;;;;;5036755;28;20440;-79
2023/10/02 06:27:47;;;;;;;18.20;10.87;;;24.60;60.60;;;;;;5036049;28;20417;-79
2023/10/02 06:30:16;;;;;;;18.43;11.10;;;24.60;59.80;;;;;;5023113;28;20479;-78
2023/10/02 06:32:53;;;;;;;16.77;10.30;;;24.60;60.30;;;;;;5031033;28;20443;-78
2023/10/02 06:35:23;;;;;;;16.40;10.90;;;24.60;59.80;;;;;;5030772;28;20413;-78
2023/10/02 06:37:54;;;;;;;19.73;11.90;;;24.60;59.70;;;;;;5030537;28;20472;-79
2023/10/02 06:40:23;;;;;;;17.87;11.57;;;24.60;59.70;;;;;;5025182;28;20429;-79
2023/10/02 06:42:58;;;;;;;20.20;12.30;;;24.70;59.70;;;;;;5031561;28;20474;-79
2023/10/02 06:45:29;;;;;;;16.63;11.00;;;24.70;59.70;;;;;;5031673;28;20491;-78
2023/10/02 06:47:57;;;;;;;17.67;11.30;;;24.70;59.60;;;;;;5030505;28;20518;-79
2023/10/02 06:50:30;;;;;;;18.63;10.90;;;24.70;59.50;;;;;;5031787;28;20517;-79
2023/10/02 06:52:59;;;;;;;16.07;10.60;;;24.80;59.60;;;;;;5036198;28;20895;-80
2023/10/02 06:55:27;;;;;;;17.67;10.57;;;24.70;59.60;;;;;;5037787;28;20444;-81
2023/10/02 06:57:56;;;;;;;20.17;10.63;;;24.80;59.50;;;;;;5029876;28;20446;-80
2023/10/02 07:00:36;;;;;;;21.57;11.43;;;24.80;59.60;;;;;;5065572;22;20482;-80
2023/10/02 07:03:06;;;;;;;16.73;10.70;;;24.80;59.50;;;;;;5057190;28;20443;-78
2023/10/02 07:05:36;;;;;;;15.50;10.27;;;24.80;59.50;;;;;;5052941;28;20442;-79
2023/10/02 07:08:17;;;;;;;15.43;9.50;;;24.90;59.40;;;;;;5054761;28;20431;-79
2023/10/02 07:10:47;;;;;;;18.80;10.63;;;24.90;59.50;;;;;;5054500;28;20432;-78
2023/10/02 07:13:20;;;;;;;18.87;10.53;;;25.00;59.60;;;;;;5034857;28;20470;-80
2023/10/02 07:15:53;;;;;;;17.73;10.10;;;25.00;59.40;;;;;;5036881;28;20443;-80
2023/10/02 07:18:21;;;;;;;16.63;10.20;;;25.00;59.40;;;;;;5036510;28;20484;-79
2023/10/02 07:20:53;;;;;;;18.90;10.40;;;25.00;59.40;;;;;;5030005;28;20521;-82
2023/10/02 07:23:22;;;;;;;16.33;10.00;;;25.10;59.30;;;;;;5044736;28;20524;-79
2023/10/02 07:25:51;;;;;;;18.47;10.20;;;25.10;59.30;;;;;;5035162;28;20455;-78
2023/10/02 07:28:20;;;;;;;16.17;9.90;;;25.20;59.20;;;;;;5034002;28;20445;-80
2023/10/02 07:30:50;;;;;;;18.03;10.63;;;25.20;59.10;;;;;;5041882;28;20947;-82
2023/10/02 07:33:19;;;;;;;19.07;10.40;;;25.30;59.10;;;;;;5033405;28;20468;-79
2023/10/02 07:35:52;;;;;;;20.07;11.17;;;25.40;59.00;;;;;;5034298;28;20410;-79
2023/10/02 07:38:23;;;;;;;15.67;10.00;;;25.40;58.80;;;;;;5045873;28;20464;-80
2023/10/02 07:40:51;;;;;;;15.67;9.70;;;25.50;58.60;;;;;;5035996;28;20961;-80
2023/10/02 07:43:21;;;;;;;19.03;9.90;;;25.50;58.70;;;;;;5032785;28;20523;-80
2023/10/02 07:46:01;;;;;;;16.50;10.40;;;25.60;58.40;;;;;;5033017;28;20443;-79
2023/10/02 07:48:33;;;;;;;19.57;10.17;;;25.70;58.40;;;;;;5047822;28;20406;-80
2023/10/02 07:51:02;;;;;;;17.80;9.60;;;25.70;58.60;;;;;;5050552;28;20451;-80
2023/10/02 07:53:39;;;;;;;14.37;9.73;;;25.70;58.60;;;;;;5044762;28;20536;-81
2023/10/02 07:56:11;;;;;;;16.50;9.90;;;25.70;58.60;;;;;;5047733;28;20447;-79
2023/10/02 07:58:41;;;;;;;17.03;10.03;;;25.70;58.60;;;;;;5038043;28;20475;-79
2023/10/02 08:01:12;;;;;;;16.00;9.70;;;25.70;58.60;;;;;;5048458;28;20477;-79
2023/10/02 08:03:43;;;;;;;16.63;9.63;;;25.80;58.70;;;;;;5037339;28;20490;-80
2023/10/02 08:06:22;;;;;;;15.60;8.97;;;25.80;58.60;;;;;;5031325;28;20435;-81
2023/10/02 08:09:35;;;;;;;15.83;9.40;;;25.80;58.60;;;;;;5031315;28;20439;-80
2023/10/02 08:11:47;;;;;;;15.33;9.27;;;25.90;58.60;;;;;;5039450;28;20508;-82
2023/10/02 08:14:34;;;;;;;15.20;9.03;;;25.90;58.70;;;;;;5038795;28;20481;-79
2023/10/02 08:17:08;;;;;;;16.47;9.70;;;25.90;58.80;;;;;;5041855;28;20440;-84
2023/10/02 08:19:37;;;;;;;20.33;10.20;;;26.00;58.60;;;;;;5033727;28;20829;-80
2023/10/02 08:22:05;;;;;;;18.23;10.67;;;26.00;58.70;;;;;;5034445;28;20933;-83
2023/10/02 08:24:37;;;;;;;16.60;10.13;;;26.20;58.80;;;;;;5041111;28;20492;-81
2023/10/02 08:27:06;;;;;;;15.00;9.67;;;26.20;58.80;;;;;;5045459;28;20454;-83
2023/10/02 08:29:34;;;;;;;19.77;10.93;;;26.30;58.90;;;;;;5039651;28;20410;-81
2023/10/02 08:32:04;;;;;;;13.30;8.57;;;26.40;58.80;;;;;;5036834;28;20451;-80
2023/10/02 08:34:32;;;;;;;14.20;9.03;;;26.50;59.00;;;;;;5053894;28;20481;-80
2023/10/02 08:37:08;;;;;;;14.63;9.20;;;26.60;58.90;;;;;;5035859;28;20521;-80
2023/10/02 08:39:38;;;;;;;14.20;8.83;;;26.70;58.90;;;;;;5033983;28;20488;-81
2023/10/02 08:42:09;;;;;;;15.27;8.90;;;26.70;58.60;;;;;;5032938;28;20489;-85
2023/10/02 08:44:40;;;;;;;11.93;8.77;;;26.80;58.80;;;;;;5032314;28;20542;-81
2023/10/02 08:47:11;;;;;;;13.07;9.00;;;26.90;58.80;;;;;;5032792;28;20427;-81
2023/10/02 08:49:40;;;;;;;13.73;9.10;;;27.00;58.90;;;;;;5038317;28;20435;-84
2023/10/02 08:52:09;;;;;;;16.13;9.20;;;27.20;58.70;;;;;;5053118;28;20496;-81
2023/10/02 08:54:41;;;;;;;14.37;9.40;;;27.30;58.50;;;;;;5055283;28;20435;-81
2023/10/02 08:57:09;;;;;;;12.90;9.07;;;27.50;58.60;;;;;;5053437;28;20863;-83
2023/10/02 08:59:39;;;;;;;14.30;9.33;;;27.70;58.30;;;;;;5055211;28;20459;-83
2023/10/02 09:02:13;;;;;;;14.37;9.53;;;27.80;58.20;;;;;;5052443;28;20409;-80
2023/10/02 09:04:42;;;;;;;13.33;9.40;;;28.00;58.20;;;;;;5049588;28;20877;-79
2023/10/02 09:07:23;;;;;;;13.00;8.50;;;28.10;58.10;;;;;;5038689;28;20940;-81
2023/10/02 09:10:12;;;;;;;12.57;8.43;;;28.30;58.00;;;;;;5035652;28;20446;-82
2023/10/02 09:12:48;;;;;;;13.80;9.47;;;28.50;57.90;;;;;;5048161;28;20410;-80
2023/10/02 09:15:27;;;;;;;14.10;8.30;;;28.60;57.70;;;;;;5047649;28;20406;-82
2023/10/02 09:18:16;;;;;;;13.10;8.50;;;28.80;57.50;;;;;;5043060;28;20893;-81
2023/10/02 09:20:52;;;;;;;12.80;9.40;;;29.00;57.50;;;;;;5045972;28;20992;-81
2023/10/02 09:23:23;;;;;;;11.00;8.40;;;29.20;57.20;;;;;;5045228;28;20424;-80
2023/10/02 09:26:16;;;;;;;11.07;8.53;;;29.30;57.10;;;;;;5046618;28;20405;-78
2023/10/02 09:28:58;;;;;;;10.93;8.37;;;29.40;57.10;;;;;;5043165;28;20412;-79
2023/10/02 09:31:30;;;;;;;11.40;7.57;;;29.60;56.90;;;;;;5040668;28;20469;-80
2023/10/02 09:34:10;;;;;;;13.00;8.40;;;29.80;56.70;;;;;;5042440;28;21005;-78
2023/10/02 09:37:11;;;;;;;12.40;8.40;;;30.00;56.60;;;;;;5045389;28;20439;-79
2023/10/02 09:40:00;;;;;;;11.10;8.07;;;30.20;56.30;;;;;;5047450;28;20463;-79
2023/10/02 09:42:33;;;;;;;12.73;8.47;;;30.40;56.20;;;;;;5045427;28;20463;-78
2023/10/02 09:45:08;;;;;;;10.57;8.37;;;30.50;56.00;;;;;;5044417;28;20889;-79
2023/10/02 09:47:38;;;;;;;13.47;9.00;;;30.60;55.80;;;;;;5047529;28;20425;-82
2023/10/02 09:50:26;;;;;;;11.63;8.17;;;30.80;55.70;;;;;;5043289;28;20447;-82
2023/10/02 09:53:00;;;;;;;10.23;7.47;;;31.00;55.60;;;;;;5045560;28;21021;-79
2023/10/02 09:55:42;;;;;;;11.87;8.23;;;31.10;55.40;;;;;;5050994;28;20442;-79
2023/10/02 09:58:26;;;;;;;11.77;8.43;;;31.30;55.20;;;;;;5041184;28;20512;-81
2023/10/02 10:01:33;;;;;;;10.17;7.97;;;31.50;54.90;;;;;;5047158;28;20478;-81
2023/10/02 10:04:30;;;;;;;11.10;7.73;;;31.60;54.50;;;;;;5033426;28;20435;-81
2023/10/02 10:07:06;;;;;;;10.47;8.10;;;31.60;54.20;;;;;;5031032;28;20500;-78
2023/10/02 10:12:32;;;;;;;12.00;8.70;;;31.60;54.20;;;;;;5056211;28;20439;-76
2023/10/02 10:15:25;;;;;;;10.50;8.40;;;31.60;54.10;;;;;;5050157;28;20520;-77
2023/10/02 10:17:55;;;;;;;11.47;8.10;;;31.60;54.20;;;;;;5045802;28;20433;-80
2023/10/02 10:20:28;;;;;;;12.67;8.13;;;31.70;53.90;;;;;;5050993;28;20474;-83
2023/10/02 10:22:55;;;;;;;10.90;7.57;;;31.70;53.90;;;;;;5057133;28;20450;-81
2023/10/02 10:25:44;;;;;;;9.93;8.03;;;31.80;53.90;;;;;;5059054;28;20453;-81
2023/10/02 10:28:27;;;;;;;12.57;7.20;;;31.90;53.90;;;;;;5057520;28;20434;-81
2023/10/02 10:31:02;;;;;;;12.47;7.87;;;32.10;53.70;;;;;;5054641;28;20432;-80
2023/10/02 10:33:34;;;;;;;12.13;8.67;;;32.20;53.50;;;;;;5041240;28;21003;-79
2023/10/02 10:36:08;;;;;;;12.73;8.40;;;32.30;53.40;;;;;;5049394;28;20493;-79
2023/10/02 10:38:41;;;;;;;11.10;8.10;;;32.50;53.30;;;;;;5046282;28;20492;-78
2023/10/02 10:41:14;;;;;;;9.33;7.50;;;32.50;52.80;;;;;;5048083;28;20447;-78
2023/10/02 10:43:55;;;;;;;11.23;8.00;;;32.60;52.50;;;;;;5052507;28;20438;-76
2023/10/02 10:46:27;;;;;;;11.67;7.83;;;32.60;52.60;;;;;;5049811;28;20464;-78
2023/10/02 10:48:58;;;;;;;10.90;8.00;;;32.60;52.40;;;;;;5052706;28;20461;-80
2023/10/02 10:51:33;;;;;;;11.60;8.47;;;32.60;52.40;;;;;;5057232;28;20842;-79
2023/10/02 10:54:19;;;;;;;14.70;8.43;;;32.50;52.20;;;;;;5050023;28;20462;-80
2023/10/02 10:57:22;;;;;;;12.50;8.33;;;32.50;52.20;;;;;;5056060;28;20430;-80
2023/10/02 11:00:23;;;;;;;14.47;8.37;;;32.50;52.30;;;;;;5053773;28;20470;-78
2023/10/02 11:03:00;;;;;;;12.60;8.60;;;32.50;52.40;;;;;;5049160;28;20462;-80
2023/10/02 11:05:33;;;;;;;11.77;8.00;;;32.60;52.20;;;;;;5046017;28;20446;-78
2023/10/02 11:08:24;;;;;;;15.27;9.07;;;32.70;51.80;;;;;;5051386;28;20508;-79
2023/10/02 11:11:06;;;;;;;11.83;8.00;;;32.50;51.90;;;;;;5053665;28;20462;-79
2023/10/02 11:13:54;;;;;;;13.13;8.43;;;32.30;52.00;;;;;;5052397;28;20425;-76
2023/10/02 11:16:30;;;;;;;10.73;8.43;;;32.10;52.20;;;;;;5056587;28;20504;-79
2023/10/02 11:19:34;;;;;;;11.80;8.63;;;32.00;52.50;;;;;;5049696;28;20437;-80
2023/10/02 11:22:19;;;;;;;11.37;8.17;;;31.80;52.70;;;;;;5049167;28;20441;-80
2023/10/02 11:25:18;;;;;;;11.47;8.50;;;31.70;53.00;;;;;;5039012;28;20450;-77
2023/10/02 11:27:56;;;;;;;13.37;8.63;;;31.60;53.20;;;;;;5055707;28;20443;-77
2023/10/02 11:30:32;;;;;;;10.67;7.60;;;31.70;53.20;;;;;;5047619;28;20454;-79
2023/10/02 11:33:04;;;;;;;11.30;8.03;;;31.70;53.00;;;;;;5055656;28;20550;-79
2023/10/02 11:35:43;;;;;;;11.93;7.90;;;31.80;53.00;;;;;;5044491;28;20448;-81
2023/10/02 11:38:12;;;;;;;10.63;8.03;;;31.80;53.10;;;;;;5034431;28;20451;-77
2023/10/02 11:40:43;;;;;;;13.10;8.27;;;32.20;53.00;;;;;;5043894;28;20529;-79
2023/10/02 11:43:14;;;;;;;11.03;8.20;;;33.20;53.10;;;;;;5053346;28;21003;-79
2023/10/02 11:45:43;;;;;;;9.77;7.70;;;34.10;50.90;;;;;;5055055;28;20467;-78
2023/10/02 11:48:10;;;;;;;9.37;7.83;;;34.60;48.30;;;;;;5056424;28;20473;-79
2023/10/02 11:50:42;;;;;;;10.07;8.00;;;35.00;48.70;;;;;;5056183;28;20478;-79
2023/10/02 11:53:11;;;;;;;10.73;8.07;;;35.40;47.30;;;;;;5057482;28;20439;-78
2023/10/02 11:55:40;;;;;;;9.00;7.87;;;35.80;46.60;;;;;;5053765;28;20482;-79
2023/10/02 11:58:09;;;;;;;10.57;8.07;;;35.80;45.80;;;;;;5053528;28;20442;-78
2023/10/02 12:00:37;;;;;;;8.47;7.50;;;35.50;45.70;;;;;;5053565;28;20505;-78
2023/10/02 12:03:07;;;;;;;10.60;7.63;;;35.40;46.60;;;;;;5055343;28;20442;-78
2023/10/02 12:05:41;;;;;;;9.43;7.30;;;35.50;46.30;;;;;;5041581;28;20458;-78
2023/10/02 12:08:11;;;;;;;8.43;7.53;;;35.30;46.10;;;;;;5034094;28;20479;-79
2023/10/02 12:10:41;;;;;;;12.70;8.33;;;35.10;46.60;;;;;;5049566;28;20528;-77
2023/10/02 12:13:09;;;;;;;10.93;7.27;;;35.30;47.00;;;;;;5053836;28;20478;-78
2023/10/02 12:15:37;;;;;;;8.57;7.23;;;35.40;46.30;;;;;;5054185;28;20447;-81
2023/10/02 12:18:06;;;;;;;11.07;7.80;;;35.30;46.00;;;;;;5045900;28;20450;-78
2023/10/02 12:20:39;;;;;;;10.73;7.40;;;35.20;46.70;;;;;;5037431;28;20483;-81
2023/10/02 12:23:09;;;;;;;8.60;6.77;;;35.30;46.80;;;;;;5043517;28;20445;-79
2023/10/02 12:25:39;;;;;;;7.97;7.07;;;36.00;46.90;;;;;;5055493;28;21027;-79
2023/10/02 12:28:09;;;;;;;10.00;7.13;;;36.80;45.70;;;;;;5053161;28;20514;-79
2023/10/02 12:30:37;;;;;;;8.73;7.20;;;37.70;44.40;;;;;;5048513;28;20969;-79
2023/10/02 12:33:06;;;;;;;9.27;7.37;;;38.50;43.10;;;;;;5055114;28;20449;-78
2023/10/02 12:35:36;;;;;;;10.20;6.50;;;39.30;41.50;;;;;;5050209;28;20528;-78
2023/10/02 12:38:07;;;;;;;8.20;7.20;;;40.10;40.90;;;;;;5054851;28;20443;-77
2023/10/02 12:40:35;;;;;;;7.73;7.00;;;40.40;39.50;;;;;;5050480;28;20482;-79
2023/10/02 12:43:05;;;;;;;7.60;6.80;;;40.70;39.10;;;;;;5045682;28;20488;-79
2023/10/02 12:45:36;;;;;;;6.70;6.10;;;40.80;38.50;;;;;;5055817;28;20446;-79
2023/10/02 12:48:07;;;;;;;9.47;7.80;;;40.30;38.40;;;;;;5062924;28;20474;-79
2023/10/02 12:50:39;;;;;;;7.20;6.50;;;39.90;39.40;;;;;;5049410;28;20462;-78
2023/10/02 12:53:08;;;;;;;9.00;6.93;;;39.90;39.20;;;;;;5052452;28;20444;-78
2023/10/02 12:55:37;;;;;;;7.60;6.87;;;39.60;39.30;;;;;;5051471;28;20442;-78
2023/10/02 12:58:07;;;;;;;8.13;7.17;;;39.10;39.80;;;;;;5054388;28;20949;-78
2023/10/02 13:00:35;;;;;;;7.60;6.30;;;39.00;40.90;;;;;;5049766;28;20466;-80
2023/10/02 13:03:05;;;;;;;8.73;7.80;;;39.30;41.30;;;;;;5060239;28;20469;-80
2023/10/02 13:05:33;;;;;;;8.03;6.90;;;39.40;40.00;;;;;;5060143;28;20426;-83
2023/10/02 13:08:01;;;;;;;7.80;6.33;;;39.90;40.20;;;;;;5057993;28;20462;-84
2023/10/02 13:10:30;;;;;;;7.93;7.00;;;39.90;39.70;;;;;;5052128;28;20475;-79
2023/10/02 13:13:00;;;;;;;7.30;6.60;;;39.50;39.30;;;;;;5052532;28;20454;-80
2023/10/02 13:15:30;;;;;;;8.43;7.40;;;38.90;39.90;;;;;;5055058;28;20439;-81
2023/10/02 13:17:59;;;;;;;7.70;6.90;;;38.10;40.80;;;;;;5051595;28;20454;-80
2023/10/02 13:20:27;;;;;;;9.67;7.00;;;37.50;41.80;;;;;;5055584;28;20474;-80
2023/10/02 13:22:55;;;;;;;8.20;7.30;;;36.90;42.70;;;;;;5054996;28;20468;-83
2023/10/02 13:25:26;;;;;;;10.07;7.60;;;36.30;43.70;;;;;;5059633;28;20514;-80
2023/10/02 13:27:55;;;;;;;8.73;7.60;;;35.90;44.50;;;;;;5057645;28;20449;-84
2023/10/02 13:30:29;;;;;;;9.20;7.43;;;35.50;45.20;;;;;;5056627;28;20481;-78
2023/10/02 13:33:00;;;;;;;9.40;6.60;;;35.10;45.70;;;;;;5057612;28;20458;-80
2023/10/02 13:35:32;;;;;;;9.70;7.43;;;34.80;46.30;;;;;;5055263;28;20438;-81
2023/10/02 13:38:01;;;;;;;8.93;7.23;;;34.50;46.90;;;;;;5050873;28;20947;-78
2023/10/02 13:40:31;;;;;;;11.20;7.00;;;34.30;47.40;;;;;;5055904;28;20471;-78
2023/10/02 13:43:00;;;;;;;10.43;6.87;;;34.10;47.60;;;;;;5052367;28;20449;-80